sensor_id;sensor_type;location;lat;lon;timestamp;P1;durP1;ratioP1;P2;durP2;ratioP2
78648;SDS011;67962;47.310;9.642;2023-07-02T17:57:32;8.88;;;4.90;;
78648;SDS011;67962;47.310;9.642;2023-07-02T18:00:04;7.47;;;4.70;;
78648;SDS011;67962;47.310;9.642;2023-07-02T18:02:33;8.20;;;4.90;;
78648;SDS011;67962;47.310;9.642;2023-07-02T18:04:59;10.60;;;5.25;;
78648;SDS011;67962;47.310;9.642;2023-07-02T18:07:26;9.13;;;5.00;;
78648;SDS011;67962;47.310;9.642;2023-07-02T18:09:53;10.20;;;4.75;;
78648;SDS011;67962;47.310;9.642;2023-07-02T18:12:20;7.60;;;4.53;;
78648;SDS011;67962;47.310;9.642;2023-07-02T18:14:48;9.43;;;5.30;;
78648;SDS011;67962;47.310;9.642;2023-07-02T18:17:15;8.75;;;5.18;;
78648;SDS011;67962;47.310;9.642;2023-07-02T18:19:43;7.32;;;5.00;;
78648;SDS011;67962;47.310;9.642;2023-07-02T18:22:09;9.43;;;5.25;;
78648;SDS011;67962;47.310;9.642;2023-07-02T18:24:37;8.70;;;5.20;;
78648;SDS011;67962;47.310;9.642;2023-07-02T18:27:05;9.20;;;5.55;;
78648;SDS011;67962;47.310;9.642;2023-07-02T18:29:34;7.97;;;5.00;;
78648;SDS011;67962;47.310;9.642;2023-07-02T18:32:02;10.48;;;5.15;;
78648;SDS011;67962;47.310;9.642;2023-07-02T18:34:31;10.38;;;4.63;;
78648;SDS011;67962;47.310;9.642;2023-07-02T18:37:02;8.73;;;5.68;;
78648;SDS011;67962;47.310;9.642;2023-07-02T18:39:30;7.78;;;5.07;;
78648;SDS011;67962;47.310;9.642;2023-07-02T18:41:59;9.45;;;5.30;;
78648;SDS011;67962;47.310;9.642;2023-07-02T18:44:33;10.85;;;5.00;;
78648;SDS011;67962;47.310;9.642;2023-07-02T18:47:01;9.60;;;5.35;;
78648;SDS011;67962;47.310;9.642;2023-07-02T18:49:29;7.82;;;5.10;;
78648;SDS011;67962;47.310;9.642;2023-07-02T18:52:10;7.72;;;4.88;;
78648;SDS011;67962;47.310;9.642;2023-07-02T18:54:40;9.50;;;5.30;;
78648;SDS011;67962;47.310;9.642;2023-07-02T18:57:09;6.90;;;4.38;;
78648;SDS011;67962;47.310;9.642;2023-07-02T18:59:39;8.05;;;4.60;;
78648;SDS011;67962;47.310;9.642;2023-07-02T19:02:12;8.20;;;4.07;;
78648;SDS011;67962;47.310;9.642;2023-07-02T19:04:39;9.57;;;4.32;;
78648;SDS011;67962;47.310;9.642;2023-07-02T19:07:08;7.30;;;4.20;;
78648;SDS011;67962;47.310;9.642;2023-07-02T19:09:35;6.47;;;4.28;;
78648;SDS011;67962;47.310;9.642;2023-07-02T19:12:04;7.93;;;4.30;;
78648;SDS011;67962;47.310;9.642;2023-07-02T19:14:35;7.25;;;4.57;;
78648;SDS011;67962;47.310;9.642;2023-07-02T19:17:07;7.47;;;4.30;;
78648;SDS011;67962;47.310;9.642;2023-07-02T19:19:36;7.35;;;4.07;;
78648;SDS011;67962;47.310;9.642;2023-07-02T19:22:04;8.27;;;4.65;;
78648;SDS011;67962;47.310;9.642;2023-07-02T19:24:31;8.00;;;4.03;;
78648;SDS011;67962;47.310;9.642;2023-07-02T19:26:57;6.20;;;3.80;;
78648;SDS011;67962;47.310;9.642;2023-07-02T19:29:23;7.82;;;3.88;;
78648;SDS011;67962;47.310;9.642;2023-07-02T19:31:50;8.00;;;4.97;;
78648;SDS011;67962;47.310;9.642;2023-07-02T19:34:17;7.70;;;4.25;;
78648;SDS011;67962;47.310;9.642;2023-07-02T19:36:44;7.10;;;3.95;;
78648;SDS011;67962;47.310;9.642;2023-07-02T19:39:13;8.65;;;4.10;;
78648;SDS011;67962;47.310;9.642;2023-07-02T19:41:40;6.47;;;4.05;;
78648;SDS011;67962;47.310;9.642;2023-07-02T19:44:07;9.30;;;3.97;;
78648;SDS011;67962;47.310;9.642;2023-07-02T19:46:33;7.57;;;3.88;;
78648;SDS011;67962;47.310;9.642;2023-07-02T19:49:00;7.25;;;4.15;;
78648;SDS011;67962;47.310;9.642;2023-07-02T19:51:26;7.10;;;3.95;;
78648;SDS011;67962;47.310;9.642;2023-07-02T19:53:53;6.93;;;4.28;;
78648;SDS011;67962;47.310;9.642;2023-07-02T19:56:19;6.80;;;3.88;;
78648;SDS011;67962;47.310;9.642;2023-07-02T19:58:45;7.03;;;4.15;;
78648;SDS011;67962;47.310;9.642;2023-07-02T20:01:14;7.22;;;4.22;;
78648;SDS011;67962;47.310;9.642;2023-07-02T20:03:41;7.55;;;3.88;;
78648;SDS011;67962;47.310;9.642;2023-07-02T20:06:08;6.10;;;3.80;;
78648;SDS011;67962;47.310;9.642;2023-07-02T20:08:35;6.25;;;4.00;;
78648;SDS011;67962;47.310;9.642;2023-07-02T20:11:01;7.82;;;4.28;;
78648;SDS011;67962;47.310;9.642;2023-07-02T20:13:28;6.50;;;4.32;;
78648;SDS011;67962;47.310;9.642;2023-07-02T20:15:56;9.65;;;4.30;;
78648;SDS011;67962;47.310;9.642;2023-07-02T20:18:23;7.22;;;4.22;;
78648;SDS011;67962;47.310;9.642;2023-07-02T20:20:50;8.45;;;4.63;;
78648;SDS011;67962;47.310;9.642;2023-07-02T20:23:25;7.60;;;4.35;;
78648;SDS011;67962;47.310;9.642;2023-07-02T20:25:52;8.95;;;4.45;;
78648;SDS011;67962;47.310;9.642;2023-07-02T20:28:18;7.28;;;4.00;;
78648;SDS011;67962;47.310;9.642;2023-07-02T20:30:45;8.18;;;4.28;;
78648;SDS011;67962;47.310;9.642;2023-07-02T20:33:12;8.55;;;4.15;;
78648;SDS011;67962;47.310;9.642;2023-07-02T20:35:39;9.40;;;4.53;;
78648;SDS011;67962;47.310;9.642;2023-07-02T20:38:07;6.95;;;4.28;;
78648;SDS011;67962;47.310;9.642;2023-07-02T20:40:34;7.45;;;4.70;;
78648;SDS011;67962;47.310;9.642;2023-07-02T20:43:00;9.57;;;5.00;;
78648;SDS011;67962;47.310;9.642;2023-07-02T20:45:26;8.13;;;4.45;;
78648;SDS011;67962;47.310;9.642;2023-07-02T20:47:56;7.43;;;4.20;;
78648;SDS011;67962;47.310;9.642;2023-07-02T20:50:27;10.73;;;4.55;;
78648;SDS011;67962;47.310;9.642;2023-07-02T20:52:55;7.25;;;4.55;;
78648;SDS011;67962;47.310;9.642;2023-07-02T20:55:22;7.10;;;4.45;;
78648;SDS011;67962;47.310;9.642;2023-07-02T20:57:48;8.15;;;4.47;;
78648;SDS011;67962;47.310;9.642;2023-07-02T21:00:14;9.10;;;5.20;;
78648;SDS011;67962;47.310;9.642;2023-07-02T21:02:41;6.50;;;4.20;;
78648;SDS011;67962;47.310;9.642;2023-07-02T21:05:08;8.63;;;4.82;;
78648;SDS011;67962;47.310;9.642;2023-07-02T21:07:34;7.53;;;4.68;;
78648;SDS011;67962;47.310;9.642;2023-07-02T21:10:00;8.98;;;4.75;;
78648;SDS011;67962;47.310;9.642;2023-07-02T21:12:27;6.65;;;4.10;;
78648;SDS011;67962;47.310;9.642;2023-07-02T21:14:53;6.95;;;4.00;;
78648;SDS011;67962;47.310;9.642;2023-07-02T21:17:19;12.05;;;4.47;;
78648;SDS011;67962;47.310;9.642;2023-07-02T21:19:45;6.85;;;4.30;;
78648;SDS011;67962;47.310;9.642;2023-07-02T21:22:11;9.95;;;4.90;;
78648;SDS011;67962;47.310;9.642;2023-07-02T21:24:37;8.02;;;4.78;;
78648;SDS011;67962;47.310;9.642;2023-07-02T21:27:03;7.50;;;4.43;;
78648;SDS011;67962;47.310;9.642;2023-07-02T21:29:30;8.60;;;4.63;;
78648;SDS011;67962;47.310;9.642;2023-07-02T21:31:56;7.60;;;4.43;;
78648;SDS011;67962;47.310;9.642;2023-07-02T21:34:21;10.35;;;5.05;;
78648;SDS011;67962;47.310;9.642;2023-07-02T21:36:47;9.65;;;4.90;;
78648;SDS011;67962;47.310;9.642;2023-07-02T21:39:14;7.55;;;4.93;;
78648;SDS011;67962;47.310;9.642;2023-07-02T21:41:40;11.15;;;4.97;;
78648;SDS011;67962;47.310;9.642;2023-07-02T21:44:06;9.23;;;4.93;;
78648;SDS011;67962;47.310;9.642;2023-07-02T21:46:32;9.30;;;5.30;;
78648;SDS011;67962;47.310;9.642;2023-07-02T21:48:58;9.88;;;5.30;;
78648;SDS011;67962;47.310;9.642;2023-07-02T21:51:23;11.75;;;5.78;;
78648;SDS011;67962;47.310;9.642;2023-07-02T21:53:49;11.27;;;6.32;;
78648;SDS011;67962;47.310;9.642;2023-07-02T21:56:16;12.52;;;6.78;;
78648;SDS011;67962;47.310;9.642;2023-07-02T21:58:42;12.30;;;6.75;;
78648;SDS011;67962;47.310;9.642;2023-07-02T22:01:08;13.45;;;6.63;;
78648;SDS011;67962;47.310;9.642;2023-07-02T22:03:37;13.80;;;6.68;;
78648;SDS011;67962;47.310;9.642;2023-07-02T22:06:03;11.45;;;6.25;;
78648;SDS011;67962;47.310;9.642;2023-07-02T22:08:29;12.23;;;6.78;;
78648;SDS011;67962;47.310;9.642;2023-07-02T22:10:54;10.52;;;6.43;;
78648;SDS011;67962;47.310;9.642;2023-07-02T22:13:20;10.98;;;6.53;;
78648;SDS011;67962;47.310;9.642;2023-07-02T22:15:46;13.23;;;7.70;;
78648;SDS011;67962;47.310;9.642;2023-07-02T22:18:12;11.82;;;6.75;;
78648;SDS011;67962;47.310;9.642;2023-07-02T22:20:38;12.95;;;6.78;;
78648;SDS011;67962;47.310;9.642;2023-07-02T22:23:08;13.57;;;7.05;;
78648;SDS011;67962;47.310;9.642;2023-07-02T22:25:34;14.73;;;7.43;;
78648;SDS011;67962;47.310;9.642;2023-07-02T22:28:03;12.00;;;7.00;;
78648;SDS011;67962;47.310;9.642;2023-07-02T22:30:28;11.90;;;7.05;;
78648;SDS011;67962;47.310;9.642;2023-07-02T22:32:54;12.25;;;7.18;;
78648;SDS011;67962;47.310;9.642;2023-07-02T22:35:20;11.85;;;7.13;;
78648;SDS011;67962;47.310;9.642;2023-07-02T22:37:46;13.73;;;7.13;;
78648;SDS011;67962;47.310;9.642;2023-07-02T22:40:13;13.38;;;7.10;;
78648;SDS011;67962;47.310;9.642;2023-07-02T22:42:40;17.52;;;7.65;;
78648;SDS011;67962;47.310;9.642;2023-07-02T22:45:08;13.18;;;7.15;;
78648;SDS011;67962;47.310;9.642;2023-07-02T22:47:35;14.55;;;7.60;;
78648;SDS011;67962;47.310;9.642;2023-07-02T22:50:03;13.75;;;7.60;;
78648;SDS011;67962;47.310;9.642;2023-07-02T22:52:29;16.00;;;8.68;;
78648;SDS011;67962;47.310;9.642;2023-07-02T22:54:55;17.48;;;8.52;;
78648;SDS011;67962;47.310;9.642;2023-07-02T22:57:21;12.80;;;7.47;;
78648;SDS011;67962;47.310;9.642;2023-07-02T22:59:48;14.77;;;7.82;;
78648;SDS011;67962;47.310;9.642;2023-07-02T23:02:14;13.50;;;7.22;;
78648;SDS011;67962;47.310;9.642;2023-07-02T23:04:40;15.20;;;8.13;;
78648;SDS011;67962;47.310;9.642;2023-07-02T23:07:06;17.58;;;7.93;;
78648;SDS011;67962;47.310;9.642;2023-07-02T23:09:32;14.30;;;8.07;;
78648;SDS011;67962;47.310;9.642;2023-07-02T23:11:57;16.48;;;8.15;;
78648;SDS011;67962;47.310;9.642;2023-07-02T23:14:23;16.27;;;8.32;;
78648;SDS011;67962;47.310;9.642;2023-07-02T23:16:49;15.65;;;7.97;;
78648;SDS011;67962;47.310;9.642;2023-07-02T23:19:15;12.90;;;7.53;;
78648;SDS011;67962;47.310;9.642;2023-07-02T23:21:41;13.05;;;7.40;;
78648;SDS011;67962;47.310;9.642;2023-07-02T23:24:11;13.43;;;7.43;;
78648;SDS011;67962;47.310;9.642;2023-07-02T23:26:41;13.93;;;8.20;;
78648;SDS011;67962;47.310;9.642;2023-07-02T23:29:13;13.93;;;7.75;;
78648;SDS011;67962;47.310;9.642;2023-07-02T23:31:52;14.98;;;7.82;;
78648;SDS011;67962;47.310;9.642;2023-07-02T23:34:19;12.43;;;7.32;;
78648;SDS011;67962;47.310;9.642;2023-07-02T23:37:04;13.60;;;8.32;;
78648;SDS011;67962;47.310;9.642;2023-07-02T23:39:35;13.75;;;7.85;;
78648;SDS011;67962;47.310;9.642;2023-07-02T23:42:03;16.10;;;8.05;;
78648;SDS011;67962;47.310;9.642;2023-07-02T23:44:29;15.20;;;7.82;;
78648;SDS011;67962;47.310;9.642;2023-07-02T23:46:55;15.60;;;7.28;;
78648;SDS011;67962;47.310;9.642;2023-07-02T23:49:20;13.98;;;8.25;;
78648;SDS011;67962;47.310;9.642;2023-07-02T23:51:46;13.73;;;7.43;;
78648;SDS011;67962;47.310;9.642;2023-07-02T23:54:12;12.30;;;7.22;;
78648;SDS011;67962;47.310;9.642;2023-07-02T23:56:37;16.60;;;8.02;;
78648;SDS011;67962;47.310;9.642;2023-07-02T23:59:03;13.75;;;7.07;;
